createdAt,value
2018-07-19T00:02:26.001Z,5.57
2018-07-19T00:04:55.846Z,6.53
2018-07-19T00:07:25.627Z,6.13
2018-07-19T00:09:55.370Z,6.40
2018-07-19T00:12:25.146Z,5.40
2018-07-19T00:14:54.980Z,6.20
2018-07-19T00:17:24.776Z,6.60
2018-07-19T00:19:54.519Z,6.00
2018-07-19T00:22:24.272Z,6.27
2018-07-19T00:24:54.044Z,6.63
2018-07-19T00:27:24.017Z,6.20
2018-07-19T00:29:53.889Z,6.07
2018-07-19T00:32:23.592Z,5.63
2018-07-19T00:34:53.400Z,6.07
2018-07-19T00:37:23.169Z,6.67
2018-07-19T00:39:52.920Z,7.23
2018-07-19T00:42:22.780Z,6.07
2018-07-19T00:44:52.645Z,6.57
2018-07-19T00:47:22.298Z,6.43
2018-07-19T00:49:52.172Z,6.80
2018-07-19T00:52:21.924Z,7.43
2018-07-19T00:54:51.720Z,7.03
2018-07-19T00:57:21.657Z,6.70
2018-07-19T00:59:51.415Z,6.67
2018-07-19T01:02:21.176Z,7.07
2018-07-19T01:04:50.994Z,6.73
2018-07-19T01:07:20.906Z,6.90
2018-07-19T01:09:50.587Z,6.00
2018-07-19T01:12:20.547Z,6.50
2018-07-19T01:14:50.416Z,7.30
2018-07-19T01:17:20.145Z,5.83
2018-07-19T01:19:49.859Z,6.50
2018-07-19T01:22:19.672Z,7.23
2018-07-19T01:24:49.496Z,5.73
2018-07-19T01:27:19.372Z,6.17
2018-07-19T01:29:49.077Z,6.43
2018-07-19T01:32:18.778Z,6.67
2018-07-19T01:34:48.527Z,6.53
2018-07-19T01:37:18.344Z,5.90
2018-07-19T01:39:48.047Z,5.87
2018-07-19T01:42:31.864Z,6.10
2018-07-19T01:45:01.577Z,5.90
2018-07-19T01:47:31.296Z,5.70
2018-07-19T01:50:00.872Z,6.30
2018-07-19T01:52:30.529Z,5.80
2018-07-19T01:55:00.215Z,6.63
2018-07-19T01:57:29.955Z,5.73
2018-07-19T01:59:59.783Z,5.70
2018-07-19T02:02:29.568Z,6.30
2018-07-19T02:04:59.372Z,5.30
2018-07-19T02:07:29.984Z,6.80
2018-07-19T02:09:59.723Z,5.70
2018-07-19T02:12:29.546Z,7.03
2018-07-19T02:14:59.411Z,5.90
2018-07-19T02:17:29.039Z,6.23
2018-07-19T02:19:58.768Z,5.77
2018-07-19T02:22:28.580Z,5.77
2018-07-19T02:24:58.343Z,5.67
2018-07-19T02:27:28.005Z,5.60
2018-07-19T02:29:57.689Z,5.47
2018-07-19T02:32:27.473Z,5.97
2018-07-19T02:34:57.225Z,5.97
2018-07-19T02:37:27.099Z,5.50
2018-07-19T02:39:56.757Z,6.07
2018-07-19T02:42:26.520Z,6.10
2018-07-19T02:44:56.282Z,6.87
2018-07-19T02:47:26.160Z,6.57
2018-07-19T02:49:55.997Z,6.03
2018-07-19T02:52:25.978Z,6.87
2018-07-19T02:54:55.726Z,5.60
2018-07-19T02:57:25.396Z,5.93
2018-07-19T02:59:55.046Z,5.37
2018-07-19T03:02:24.761Z,5.67
2018-07-19T03:04:54.515Z,5.50
2018-07-19T03:07:24.264Z,5.83
2018-07-19T03:09:54.043Z,5.50
2018-07-19T03:12:23.702Z,4.23
2018-07-19T03:14:53.766Z,5.10
2018-07-19T03:17:26.364Z,5.23
2018-07-19T03:19:58.449Z,5.20
2018-07-19T03:22:29.627Z,5.80
2018-07-19T03:24:59.415Z,4.73
2018-07-19T03:27:29.104Z,4.50
2018-07-19T03:29:58.788Z,4.70
2018-07-19T03:32:28.640Z,4.53
2018-07-19T03:34:58.461Z,5.27
2018-07-19T03:37:28.167Z,5.13
2018-07-19T03:39:57.896Z,4.90
2018-07-19T03:42:27.551Z,5.00
2018-07-19T03:44:57.296Z,5.03
2018-07-19T03:47:27.067Z,4.80
2018-07-19T03:49:57.201Z,4.90
2018-07-19T03:52:27.011Z,6.23
2018-07-19T03:54:56.733Z,4.53
2018-07-19T03:57:26.521Z,4.60
2018-07-19T03:59:56.381Z,5.10
2018-07-19T04:02:35.982Z,5.57
2018-07-19T04:05:06.460Z,4.77
2018-07-19T04:07:36.268Z,4.90
2018-07-19T04:10:06.411Z,4.17
2018-07-19T04:12:36.156Z,4.93
2018-07-19T04:15:06.004Z,4.90
2018-07-19T04:17:40.023Z,4.90
2018-07-19T04:20:10.004Z,4.87
2018-07-19T04:22:39.633Z,4.03
2018-07-19T04:25:09.372Z,4.90
2018-07-19T04:27:38.951Z,4.57
2018-07-19T04:30:08.785Z,4.10
2018-07-19T04:32:38.685Z,4.10
2018-07-19T04:35:08.483Z,5.10
2018-07-19T04:37:38.264Z,4.43
2018-07-19T04:40:08.034Z,4.90
2018-07-19T04:42:37.886Z,4.57
2018-07-19T04:45:07.557Z,4.60
2018-07-19T04:47:37.408Z,4.50
2018-07-19T04:50:07.296Z,5.57
2018-07-19T04:52:37.137Z,4.97
2018-07-19T04:55:06.784Z,4.57
2018-07-19T04:57:36.464Z,4.40
2018-07-19T05:00:06.514Z,4.40
2018-07-19T05:02:36.225Z,4.43
2018-07-19T05:05:06.032Z,4.60
2018-07-19T05:07:35.956Z,4.57
2018-07-19T05:10:05.733Z,4.00
2018-07-19T05:12:35.365Z,4.40
2018-07-19T05:15:05.452Z,4.60
2018-07-19T05:17:35.172Z,4.50
2018-07-19T05:20:05.066Z,4.50
2018-07-19T05:22:34.791Z,4.17
2018-07-19T05:25:04.701Z,4.70
2018-07-19T05:27:34.558Z,4.90
2018-07-19T05:30:04.432Z,4.47
2018-07-19T05:32:34.086Z,4.47
2018-07-19T05:35:03.948Z,4.50
2018-07-19T05:37:33.588Z,4.60
2018-07-19T05:40:03.391Z,5.07
2018-07-19T05:42:33.127Z,4.00
2018-07-19T05:45:02.940Z,4.90
2018-07-19T05:47:32.697Z,4.67
2018-07-19T05:50:02.362Z,4.37
2018-07-19T05:52:32.215Z,4.57
2018-07-19T05:55:01.986Z,5.63
2018-07-19T05:57:31.657Z,4.77
2018-07-19T06:00:01.349Z,4.53
2018-07-19T06:02:31.260Z,5.33
2018-07-19T06:05:01.044Z,4.40
2018-07-19T06:07:30.737Z,4.60
2018-07-19T06:10:00.495Z,5.37
2018-07-19T06:12:30.151Z,4.57
2018-07-19T06:14:59.937Z,4.67
2018-07-19T06:17:29.674Z,5.00
2018-07-19T06:19:59.496Z,4.47
2018-07-19T06:22:29.395Z,4.50
2018-07-19T06:24:59.097Z,4.70
2018-07-19T06:27:28.868Z,5.03
2018-07-19T06:29:58.546Z,3.87
2018-07-19T06:32:28.397Z,4.90
2018-07-19T06:34:58.144Z,4.30
2018-07-19T06:37:28.019Z,4.60
2018-07-19T06:39:57.687Z,5.23
2018-07-19T06:42:27.376Z,4.13
2018-07-19T06:44:57.203Z,5.13
2018-07-19T06:47:27.154Z,5.53
2018-07-19T06:49:56.920Z,5.10
2018-07-19T06:52:26.904Z,5.27
2018-07-19T06:54:56.750Z,4.70
2018-07-19T06:57:26.487Z,4.63
2018-07-19T06:59:56.280Z,4.63
2018-07-19T07:02:25.562Z,4.90
2018-07-19T07:04:55.293Z,4.50
2018-07-19T07:07:25.171Z,4.90
2018-07-19T07:09:54.800Z,4.33
2018-07-19T07:12:23.950Z,5.03
2018-07-19T07:14:53.079Z,4.53
2018-07-19T07:17:22.865Z,4.70
2018-07-19T07:19:52.644Z,4.60
2018-07-19T07:22:22.488Z,4.50
2018-07-19T07:24:52.269Z,3.83
2018-07-19T07:27:22.076Z,4.00
2018-07-19T07:29:51.760Z,4.90
2018-07-19T07:32:21.532Z,4.70
2018-07-19T07:34:51.400Z,4.67
2018-07-19T07:37:21.254Z,4.40
2018-07-19T07:39:50.924Z,4.57
2018-07-19T07:42:20.732Z,4.10
2018-07-19T07:44:50.443Z,4.70
2018-07-19T07:47:20.155Z,4.40
2018-07-19T07:49:49.917Z,4.40
2018-07-19T07:52:19.792Z,4.20
2018-07-19T07:54:49.439Z,4.33
2018-07-19T07:57:19.288Z,3.97
2018-07-19T07:59:49.147Z,4.30
2018-07-19T08:02:18.924Z,4.17
2018-07-19T08:04:48.737Z,3.70
2018-07-19T08:07:18.255Z,4.13
2018-07-19T08:09:48.048Z,4.20
2018-07-19T08:12:17.929Z,4.00
2018-07-19T08:14:47.311Z,3.80
2018-07-19T08:17:16.756Z,3.97
2018-07-19T08:19:46.160Z,4.27
2018-07-19T08:22:15.544Z,4.00
2018-07-19T08:24:45.483Z,4.20
2018-07-19T08:27:15.354Z,4.10
2018-07-19T08:29:45.194Z,3.90
2018-07-19T08:32:15.289Z,3.30
2018-07-19T08:34:45.047Z,3.37
2018-07-19T08:37:14.462Z,3.42
2018-07-19T08:39:44.293Z,3.77
2018-07-19T08:42:14.243Z,3.58
2018-07-19T08:44:43.886Z,3.58
2018-07-19T08:47:15.879Z,3.60
2018-07-19T08:49:46.833Z,3.40
2018-07-19T08:52:17.443Z,3.42
2018-07-19T08:54:47.283Z,3.67
2018-07-19T08:57:17.197Z,4.10
2018-07-19T08:59:46.901Z,3.42
2018-07-19T09:02:16.522Z,4.10
2018-07-19T09:04:46.144Z,3.92
2018-07-19T09:07:15.883Z,3.10
2018-07-19T09:09:45.492Z,3.40
2018-07-19T09:12:15.287Z,4.03
2018-07-19T09:14:45.070Z,3.62
2018-07-19T09:17:14.809Z,4.28
2018-07-19T09:19:44.461Z,3.85
2018-07-19T09:22:13.733Z,3.70
2018-07-19T09:24:43.649Z,3.90
2018-07-19T09:27:13.662Z,4.03
2018-07-19T09:29:43.344Z,4.50
2018-07-19T09:32:13.328Z,4.05
2018-07-19T09:34:42.900Z,4.25
2018-07-19T09:37:14.700Z,3.80
2018-07-19T09:39:46.523Z,4.12
2018-07-19T09:42:16.302Z,3.90
2018-07-19T09:44:58.295Z,3.87
2018-07-19T09:47:28.848Z,3.22
2018-07-19T09:49:58.403Z,3.60
2018-07-19T09:52:27.841Z,3.62
2018-07-19T09:55:02.215Z,3.80
2018-07-19T09:57:32.232Z,3.58
2018-07-19T10:00:01.586Z,3.60
2018-07-19T10:02:31.021Z,3.47
2018-07-19T10:05:00.418Z,3.77
2018-07-19T10:07:30.203Z,3.85
2018-07-19T10:09:59.827Z,3.92
2018-07-19T10:12:29.640Z,3.62
2018-07-19T10:14:59.294Z,4.22
2018-07-19T10:17:28.931Z,5.10
2018-07-19T10:19:58.270Z,3.50
2018-07-19T10:22:27.616Z,4.40
2018-07-19T10:24:56.955Z,4.62
2018-07-19T10:27:26.336Z,3.53
2018-07-19T10:29:55.705Z,3.90
2018-07-19T10:32:25.165Z,3.53
2018-07-19T10:34:54.520Z,3.80
2018-07-19T10:37:23.940Z,5.00
2018-07-19T10:42:30.837Z,4.10
2018-07-19T10:45:00.305Z,3.83
2018-07-19T10:47:29.733Z,4.37
2018-07-19T10:49:59.081Z,4.33
2018-07-19T10:52:28.429Z,4.30
2018-07-19T10:54:57.791Z,4.93
2018-07-19T10:57:27.189Z,3.90
2018-07-19T10:59:56.556Z,4.27
2018-07-19T11:02:25.933Z,4.20
2018-07-19T11:04:55.329Z,4.50
2018-07-19T11:07:24.693Z,4.53
2018-07-19T11:09:54.035Z,4.20
2018-07-19T11:12:23.377Z,4.53
2018-07-19T11:14:52.691Z,4.70
2018-07-19T11:17:22.073Z,4.47
2018-07-19T11:19:51.450Z,4.30
2018-07-19T11:22:20.811Z,4.80
2018-07-19T11:24:50.185Z,4.50
2018-07-19T11:27:19.577Z,4.73
2018-07-19T11:29:48.916Z,4.27
2018-07-19T11:32:18.252Z,4.33
2018-07-19T11:34:47.718Z,4.40
2018-07-19T11:37:17.146Z,4.07
2018-07-19T11:39:46.934Z,4.10
2018-07-19T11:42:16.637Z,4.63
2018-07-19T11:44:46.013Z,4.30
2018-07-19T11:47:15.347Z,3.97
2018-07-19T11:49:44.739Z,3.93
2018-07-19T11:52:14.117Z,4.10
2018-07-19T11:54:43.516Z,3.83
2018-07-19T11:57:12.941Z,4.20
2018-07-19T11:59:42.268Z,4.00
2018-07-19T12:02:11.614Z,4.40
2018-07-19T12:04:40.945Z,4.73
2018-07-19T12:07:10.285Z,4.80
2018-07-19T12:09:39.626Z,4.30
2018-07-19T12:12:09.089Z,4.50
2018-07-19T12:14:38.420Z,4.67
2018-07-19T12:17:07.777Z,4.60
2018-07-19T12:19:37.170Z,3.80
2018-07-19T12:22:06.547Z,4.07
2018-07-19T12:24:35.897Z,3.93
2018-07-19T12:27:05.437Z,4.20
2018-07-19T12:29:34.861Z,4.70
2018-07-19T12:32:04.318Z,4.57
2018-07-19T12:34:33.891Z,3.77
2018-07-19T12:37:03.275Z,4.07
2018-07-19T12:39:32.794Z,3.80
2018-07-19T12:42:02.247Z,4.17
2018-07-19T12:44:31.292Z,3.40
2018-07-19T12:47:00.705Z,4.27
2018-07-19T12:49:30.609Z,4.00
2018-07-19T12:51:59.912Z,4.40
2018-07-19T12:54:29.276Z,4.17
2018-07-19T12:56:58.690Z,4.40
2018-07-19T12:59:28.275Z,4.23
2018-07-19T13:01:57.634Z,3.90
2018-07-19T13:04:27.024Z,4.77
2018-07-19T13:06:56.420Z,4.80
2018-07-19T13:09:25.859Z,4.23
2018-07-19T13:11:55.482Z,4.00
2018-07-19T13:14:26.362Z,4.17
2018-07-19T13:16:56.263Z,4.60
2018-07-19T13:19:25.632Z,4.80
2018-07-19T13:21:55.111Z,4.33
2018-07-19T13:24:24.886Z,4.10
2018-07-19T13:26:54.280Z,4.33
2018-07-19T13:29:23.697Z,3.90
2018-07-19T13:31:52.989Z,4.00
2018-07-19T13:34:27.427Z,3.70
2018-07-19T13:36:56.772Z,4.33
2018-07-19T13:39:26.476Z,3.17
2018-07-19T13:41:55.807Z,3.80
2018-07-19T13:44:25.193Z,4.10
2018-07-19T13:46:54.525Z,4.10
2018-07-19T13:49:23.900Z,3.97
2018-07-19T13:51:53.251Z,3.80
2018-07-19T13:54:36.117Z,3.97
2018-07-19T13:57:05.513Z,4.00
2018-07-19T13:59:34.826Z,4.30
2018-07-19T14:02:04.240Z,4.00
2018-07-19T14:04:33.712Z,3.60
2018-07-19T14:07:03.389Z,3.70
2018-07-19T14:09:32.705Z,4.03
2018-07-19T14:12:02.022Z,3.70
2018-07-19T14:14:31.375Z,4.30
2018-07-19T14:17:00.696Z,4.50
2018-07-19T14:19:30.079Z,4.20
2018-07-19T14:21:59.544Z,5.17
2018-07-19T14:24:28.892Z,3.60
2018-07-19T14:26:58.243Z,4.30
2018-07-19T14:29:27.602Z,3.83
2018-07-19T14:31:56.941Z,3.70
2018-07-19T14:34:26.322Z,3.57
2018-07-19T14:36:55.657Z,3.80
2018-07-19T14:39:25.285Z,3.20
2018-07-19T14:41:54.665Z,3.60
2018-07-19T14:44:24.277Z,3.97
2018-07-19T14:46:53.633Z,3.77
2018-07-19T14:49:22.946Z,4.27
2018-07-19T14:51:52.240Z,3.90
2018-07-19T14:54:21.559Z,3.83
2018-07-19T14:56:50.891Z,3.60
2018-07-19T14:59:19.677Z,3.73
2018-07-19T15:01:49.040Z,3.50
2018-07-19T15:04:18.378Z,4.00
2018-07-19T15:06:47.703Z,4.30
2018-07-19T15:09:17.128Z,4.37
2018-07-19T15:11:46.620Z,3.80
2018-07-19T15:14:16.245Z,4.40
2018-07-19T15:16:45.831Z,3.67
2018-07-19T15:19:15.282Z,4.00
2018-07-19T15:21:44.727Z,3.50
2018-07-19T15:24:14.268Z,4.50
2018-07-19T15:26:43.619Z,4.40
2018-07-19T15:29:13.116Z,4.13
2018-07-19T15:31:42.417Z,4.40
2018-07-19T15:34:11.796Z,3.70
2018-07-19T15:36:41.395Z,3.73
2018-07-19T15:39:11.137Z,3.67
2018-07-19T15:41:40.442Z,3.47
2018-07-19T15:44:09.760Z,4.03
2018-07-19T15:46:39.269Z,3.43
2018-07-19T15:49:08.823Z,3.53
2018-07-19T15:51:38.569Z,2.90
2018-07-19T15:54:08.068Z,3.50
2018-07-19T15:56:36.956Z,3.70
2018-07-19T15:59:06.514Z,3.83
2018-07-19T16:01:36.120Z,3.57
2018-07-19T16:04:05.916Z,4.10
2018-07-19T16:06:35.211Z,3.80
2018-07-19T16:09:07.246Z,4.17
2018-07-19T16:11:36.637Z,3.87
2018-07-19T16:14:06.015Z,4.00
2018-07-19T16:16:35.653Z,3.80
2018-07-19T16:19:05.025Z,3.37
2018-07-19T16:21:34.364Z,3.17
2018-07-19T16:24:03.721Z,3.57
2018-07-19T16:26:33.030Z,3.63
2018-07-19T16:29:02.361Z,4.00
2018-07-19T16:31:31.676Z,3.53
2018-07-19T16:34:01.545Z,3.77
2018-07-19T16:36:32.024Z,3.83
2018-07-19T16:39:01.349Z,3.47
2018-07-19T16:41:30.692Z,3.10
2018-07-19T16:44:00.043Z,3.73
2018-07-19T16:46:29.409Z,3.10
2018-07-19T16:48:58.702Z,3.77
2018-07-19T16:51:28.049Z,3.57
2018-07-19T16:53:57.347Z,3.70
2018-07-19T16:56:26.768Z,4.23
2018-07-19T16:58:56.566Z,3.63
2018-07-19T17:01:25.945Z,4.03
2018-07-19T17:03:56.180Z,4.40
2018-07-19T17:06:25.634Z,3.47
2018-07-19T17:08:55.017Z,3.60
2018-07-19T17:11:24.396Z,3.73
2018-07-19T17:13:53.791Z,3.47
2018-07-19T17:16:23.172Z,3.50
2018-07-19T17:18:52.568Z,3.20
2018-07-19T17:21:21.967Z,4.50
2018-07-19T17:23:51.389Z,3.80
2018-07-19T17:26:20.796Z,3.70
2018-07-19T17:28:49.731Z,3.57
2018-07-19T17:31:19.246Z,3.23
2018-07-19T17:33:48.701Z,3.17
2018-07-19T17:36:18.064Z,3.47
2018-07-19T17:38:47.557Z,3.20
2018-07-19T17:41:17.393Z,3.63
2018-07-19T17:43:47.793Z,3.60
2018-07-19T17:46:17.773Z,3.63
2018-07-19T17:48:47.736Z,3.30
2018-07-19T17:51:17.864Z,3.13
2018-07-19T17:53:48.356Z,3.27
2018-07-19T17:56:18.470Z,3.90
2018-07-19T17:58:48.368Z,4.10
2018-07-19T18:01:18.414Z,3.70
2018-07-19T18:03:48.591Z,3.30
2018-07-19T18:06:18.984Z,3.60
2018-07-19T18:08:50.261Z,3.43
2018-07-19T18:11:20.502Z,3.60
2018-07-19T18:13:49.923Z,3.57
2018-07-19T18:16:19.354Z,3.63
2018-07-19T18:18:48.819Z,3.73
2018-07-19T18:21:18.586Z,3.40
2018-07-19T18:23:47.968Z,3.57
2018-07-19T18:26:17.646Z,3.90
2018-07-19T18:28:47.043Z,3.83
2018-07-19T18:31:16.420Z,3.90
2018-07-19T18:33:45.793Z,3.73
2018-07-19T18:36:15.192Z,3.17
2018-07-19T18:38:44.613Z,3.30
2018-07-19T18:41:14.012Z,3.73
2018-07-19T18:43:43.405Z,3.50
2018-07-19T18:46:12.820Z,3.20
2018-07-19T18:48:42.208Z,3.47
2018-07-19T18:51:11.596Z,3.47
2018-07-19T18:53:40.976Z,2.93
2018-07-19T18:56:10.392Z,3.50
2018-07-19T18:58:39.836Z,3.70
2018-07-19T19:01:09.307Z,3.70
2018-07-19T19:03:38.720Z,4.10
2018-07-19T19:06:08.125Z,3.40
2018-07-19T19:08:37.504Z,4.17
2018-07-19T19:11:07.034Z,4.20
2018-07-19T19:13:42.100Z,3.97
2018-07-19T19:16:11.539Z,4.03
2018-07-19T19:18:48.563Z,4.10
2018-07-19T19:21:18.066Z,4.53
2018-07-19T19:23:47.458Z,4.17
2018-07-19T19:26:16.846Z,3.80
2018-07-19T19:28:46.264Z,3.93
2018-07-19T19:31:15.645Z,3.57
2018-07-19T19:33:45.070Z,4.00
2018-07-19T19:36:14.472Z,3.30
2018-07-19T19:38:43.845Z,3.50
2018-07-19T19:41:13.237Z,3.80
2018-07-19T19:43:42.625Z,3.90
2018-07-19T19:46:12.032Z,3.57
2018-07-19T19:48:41.458Z,3.53
2018-07-19T19:51:10.856Z,4.33
2018-07-19T19:53:40.244Z,4.07
2018-07-19T19:56:09.627Z,3.60
2018-07-19T19:58:39.083Z,3.90
2018-07-19T20:01:08.480Z,3.80
2018-07-19T20:03:38.281Z,4.23
2018-07-19T20:06:07.793Z,3.60
2018-07-19T20:08:37.235Z,3.73
2018-07-19T20:11:06.660Z,3.80
2018-07-19T20:13:36.564Z,4.17
2018-07-19T20:16:06.305Z,3.47
2018-07-19T20:18:36.001Z,3.70
2018-07-19T20:21:05.867Z,3.90
2018-07-19T20:23:35.603Z,3.47
2018-07-19T20:26:05.357Z,3.73
2018-07-19T20:28:35.191Z,4.50
2018-07-19T20:31:04.976Z,4.27
2018-07-19T20:33:34.765Z,3.13
2018-07-19T20:36:04.499Z,4.23
2018-07-19T20:38:34.312Z,4.03
2018-07-19T20:41:04.136Z,4.30
2018-07-19T20:43:33.920Z,4.70
2018-07-19T20:46:03.644Z,4.30
2018-07-19T20:48:33.632Z,5.07
2018-07-19T20:51:03.628Z,4.43
2018-07-19T20:53:33.369Z,4.33
2018-07-19T20:56:02.988Z,4.30
2018-07-19T20:58:32.595Z,4.80
2018-07-19T21:01:02.285Z,4.40
2018-07-19T21:03:32.017Z,4.40
2018-07-19T21:06:01.821Z,4.83
2018-07-19T21:08:31.550Z,4.50
2018-07-19T21:11:01.436Z,4.40
2018-07-19T21:13:31.190Z,4.00
2018-07-19T21:16:00.979Z,4.63
2018-07-19T21:18:30.611Z,4.70
2018-07-19T21:21:00.412Z,4.63
2018-07-19T21:23:30.371Z,4.57
2018-07-19T21:26:00.129Z,4.83
2018-07-19T21:28:29.900Z,5.10
2018-07-19T21:30:59.662Z,4.63
2018-07-19T21:33:29.317Z,4.93
2018-07-19T21:35:58.876Z,4.80
2018-07-19T21:38:28.560Z,4.77
2018-07-19T21:40:58.371Z,4.53
2018-07-19T21:43:28.112Z,5.33
2018-07-19T21:45:58.084Z,5.13
2018-07-19T21:48:27.829Z,5.10
2018-07-19T21:50:57.792Z,4.97
2018-07-19T21:53:27.460Z,5.00
2018-07-19T21:55:57.317Z,5.33
2018-07-19T21:58:27.199Z,4.80
2018-07-19T22:01:01.877Z,5.10
2018-07-19T22:03:31.728Z,4.60
2018-07-19T22:06:01.586Z,5.80
2018-07-19T22:08:31.329Z,5.13
2018-07-19T22:11:01.013Z,4.80
2018-07-19T22:13:30.156Z,5.20
2018-07-19T22:16:00.188Z,5.27
2018-07-19T22:18:29.940Z,5.20
2018-07-19T22:20:59.551Z,5.07
2018-07-19T22:23:29.244Z,5.60
2018-07-19T22:25:59.019Z,5.30
2018-07-19T22:28:28.800Z,5.03
2018-07-19T22:30:58.530Z,5.40
2018-07-19T22:33:28.209Z,4.90
2018-07-19T22:35:57.888Z,5.00
2018-07-19T22:38:27.553Z,5.27
2018-07-19T22:40:57.330Z,6.00
2018-07-19T22:43:27.089Z,5.43
2018-07-19T22:45:56.872Z,5.00
2018-07-19T22:48:26.545Z,5.43
2018-07-19T22:50:56.195Z,5.33
2018-07-19T22:53:25.865Z,6.17
2018-07-19T22:55:55.517Z,5.80
2018-07-19T22:58:25.328Z,4.90
2018-07-19T23:00:54.832Z,5.50
2018-07-19T23:03:24.762Z,5.60
2018-07-19T23:05:54.625Z,4.87
2018-07-19T23:08:24.255Z,5.20
2018-07-19T23:10:53.967Z,5.00
2018-07-19T23:13:23.588Z,5.87
2018-07-19T23:15:53.293Z,5.40
2018-07-19T23:18:22.964Z,5.67
2018-07-19T23:20:52.698Z,5.00
2018-07-19T23:23:22.592Z,5.33
2018-07-19T23:25:52.330Z,5.83
2018-07-19T23:28:22.126Z,5.90
2018-07-19T23:30:51.978Z,4.93
2018-07-19T23:33:21.755Z,5.10
2018-07-19T23:35:55.424Z,6.00
2018-07-19T23:38:30.464Z,5.57
2018-07-19T23:41:02.208Z,6.00
2018-07-19T23:43:35.070Z,5.60
2018-07-19T23:46:14.200Z,5.33
2018-07-19T23:48:43.904Z,5.37
2018-07-19T23:51:13.723Z,5.50
2018-07-19T23:53:43.426Z,4.90
2018-07-19T23:56:13.232Z,5.83
2018-07-19T23:58:43.057Z,5.37
